Aeroporto :
LOGIN :

Iscrizione | Disclaimer

   EN    FR    IT 

 










Sommario :    VFR   VFR Marginale   IFR   IFR Intensivo   IFR Molto Intensivo
Visibilità : 
Base nubi : 
>= 8 km
>= 3000ft
5 / 8 km
1000 / 3000 ft
1500m / 5 km
500 / 1000 ft
800 / 1500m
200 / 500 ft
< 800m
< 200 ft
Simboli :   Temporali  Nebbia  Neve Forte  Precipitazioni Forti  Vento > 20 kt
SIGMETs :   Varie  Temporali  Ghiacco  Turbolenza  Onda orograficha  Ceneri Vulcaniche






- Altitudine del aeroporto : 327 ft
- Codice IATA : BHX


EGBB - Birmingham

ULTIMO METAR :
  • 211150Z 35010KT 9999 FEW022 SCT047 12/07 Q1021

METARs OBSOLETI :
  • 211120Z 35011KT 9999 BKN020 BKN048 11/08 Q1021
  • 211050Z 36010KT 9999 BKN016 BKN048 11/08 Q1021
  • 211020Z 36010KT 9999 SCT015 BKN042 11/08 Q1021
  • 210950Z 36010KT 9999 BKN014 BKN037 10/08 Q1021
  • 210920Z 36009KT 9999 BKN013 10/09 Q1021

TAF TAF EGBB
Valido dal 21 a 12 ore il 22 a 12 ore UTC


211103Z 2112/2212 36010KT 9999 SCT012
PROB30
TEMPO 2112/2115 BKN012
BECMG 2117/2120 VRB03KT
BECMG 2120/2123 8000
PROB40 2200/2207 4000 BR
BECMG 2207/2210 23010KT
ATIS : +44 121 780 0910



MetMap, La meteo Aeronautica in un colpo d'occhio ! - Copyright ORBIFLY Dicembre 2007 - Disclaimer

ORBIFLY MET'MAP TEAM :

Programmazione e sviluppo : Alexandra Zaïnal
Concezione e sviluppo : Baudouin d'Aumeries
Co-Programmazione e sviluppo : Marc-Olivier Méhu
Supporto tecnico e logistico : Manuel Goepfert
Aiuto per la traduzione : Arnaldo La Scala

Contatto : metmap@orbifly.com




FONTI E CREDITI :

   NOAA